Central, UT (84722)

1:39 AM MDT on October 26, 2014 (GMT -0600)
Pine Valley | Change Station
CLOSE
Current Station
Personal Weather Station
Location: Pine Valley, UT
Elevation: 6640 ft
Nearby Weather Stations

Elev 6640 ft 37.39 °N, 113.53 °W | Updated 6 minutes ago

Clear
Clear
54.1 °F
Feels Like 54.1 °F
N
6.8
Wind Variable Wind from SSW

Today
High -- | Low -- °F
--% Chance of Precip.
Yesterday
High -- | Low -- °F
Precip. -- in
7:52 AM 6:42 PM
Waxing Crescent, 6% visible
Pressure 29.85 in
Visibility 10.0 miles
Clouds Clear
Dew Point 41 °F
Humidity 62%
Rainfall 0.00 in
Snow Depth Not available.
UV 0 out of 12
Pollen 4.40 out of 12
Air Quality Not available.
Flu Activity Sporadic
METAR KCDC 260653Z AUTO 19017G31KT 10SM CLR 16/04 A3005 RMK AO2 PK WND 20035/0555 SLP108 T01610044 402220067 TSNO

More Conditions Fewer Conditions

Pressure 29.85 in
Visibility 10.0 miles
Clouds Clear
Dew Point 41 °F
Humidity 62%
Rainfall 0.00 in
Snow Depth Not available.
UV 0 out of 12
Pollen 4.40 out of 12
Air Quality Not available.
Flu Activity Sporadic
METAR KCDC 260653Z AUTO 19017G31KT 10SM CLR 16/04 A3005 RMK AO2 PK WND 20035/0555 SLP108 T01610044 402220067 TSNO

More Conditions Fewer Conditions

10-Day Weather Forecast

Almanac

Astronomy

Oct. 26, 2014 Rise Set
Actual Time 7:52 AM MDT 6:42 PM MDT
Civil Twilight 7:26 AM MDT 7:09 PM MDT
Nautical Twilight 6:55 AM MDT 7:40 PM MDT
Astronomical Twilight 6:25 AM MDT 8:10 PM MDT
Moon 10:32 AM MDT 9:00 PM MDT
Length of Visible Light 11h 43m
Length of Day
10h 49m
Tomorrow will be 2m 11s shorter.
Waxing Crescent, 6% of the Moon is Illuminated
Today
Waxing Crescent
Oct 30
First Quarter
Nov 6
Full
Nov 14
Last Quarter
Nov 22
New

Today's Extremes

State Highs State Lows

Community

WunderPhotos

Upload Photos

1,765,115 photos uploaded!

Nearby

Snow Depth

Station Depth Elevation
Long Flat 0 in 8000 ft
Webster Flat 0 in 9200 ft
Long Valley Jct 1 in 7360 ft
Agua Canyon 0 in 8900 ft
Merchant Valley 0 in 8750 ft

Earthquake Activity

City Distance Mag. Time & Date
No recent earthquake activity has been reported nearby.
Minimum magnitude displayed is 2.5.

Coastal Water Temperatures

Place Temperature
No Stations Reporting

Nearby Weather Stations